Página principal
METAR-TAF:

METAR-TAF

Aeroportos :

Chita, Rússia

latitude: 52-05N, longitude: 113-29E, altura: 685 m

Observação actual do tempo

O boletim foi feito há 48 minutos, às 18:00 UTC
Vento 10 kt de noroeste
Temperatura 10°C
Humidade 50%
Pressão 1009 hPa
Visibilidade 10 km ou mais

METAR: UIAA 271800Z 31005MPS 9999 NSC 10/M00 Q1009 R29/CLRD70 NOSIG RMK QFE699

Hora: 03:48 (18:48 UTC)

Previsão

O boletim foi feito há 1 hora e 48 minutos, às 17:00 UTC
Previsão válida de 27 às 18 UTC a 28 às 18 UTC
Vento 19 kt de noroeste com rajadas de 35 kt
Visibilidade 10 km ou mais
Nuvens fragmentadasa uma altura de 3000 ft, Cumulonimbus.

TAF: UIAA 271700Z 2718/2818 31010G18MPS 9999 BKN030CB

Observações e previsões do tempo de mais de 4000 aeroportos (mensagens METAR e TAF).

As estações disponíveis são os pontos amarelos e vermelhos sobre o mapa.

Mova o rato sobre o mapa para ver o nome da estação.

Depois clique no ponto para visualizar as observações e previsões meteorológicas.

Para alterar o mapa : clique nos botões verdes com uma cruz preta para aumentar o zoom; no botão verde com uma pitada de zoom; ou nas setas verdes para mapas adjacentes.


METAR-TAF: